Terminal Aerodrome Forecast
Issued by NWS Greer, SC

Home | Current Version | Previous Version | Text Only | Print | Product List | Glossary On
Versions: 1 2 3 4 5 6 7 8 9 10 11 12 13 14 15 16 17 18 19 20 21 22 23 24 25 26 27 28 29 30 31 32 33 34 35 36 37 38 39 40 41
132
FTUS42 KGSP 280521
TAFAVL
TAF
KAVL 280521Z 2806/2906 00000KT P6SM OVC004
     FM280900 33001KT 3SM BR BKN004
      TEMPO 2810/2811 OVC002
     FM281300 33003KT 2SM BR SCT002 BKN250
     FM281400 32004KT P6SM VCSH SCT250
     FM281800 21006KT P6SM -SHRA VCTS OVC050CB
     FM290200 27006KT P6SM SCT008 BKN030 PROB30 2902/2904 4SM -TSRA
      OVC007CB=

USA.gov is the U.S. government's official web portal to all federal, state and local government web resources and services.